Time;durP1;ratioP1;P1;durP2;ratioP2;P2;SDS_P1;SDS_P2;PMS_P1;PMS_P2;Temp;Humidity;BMP_temperature;BMP_pressure;BME280_temperature;BME280_humidity;BME280_pressure;Samples;Min_cycle;Max_cycle;Signal;HPM_P1;HPM_P2
2021/12/22 00:01:36;;;;;;;7.60;2.90;;;;;;;-6.83;58.14;101366.98;117317;1186;21854;-50
2021/12/22 00:04:05;;;;;;;6.40;3.20;;;;;;;-6.79;57.94;101371.52;117283;1186;21853;-50
2021/12/22 00:06:35;;;;;;;6.80;3.20;;;;;;;-6.76;58.17;101372.42;117377;1186;21863;-56
2021/12/22 00:09:05;;;;;;;7.90;3.50;;;;;;;-6.79;58.04;101369.95;117372;1185;22625;-51
2021/12/22 00:11:34;;;;;;;7.60;3.10;;;;;;;-6.80;58.18;101372.80;117350;1186;22964;-57
2021/12/22 00:14:03;;;;;;;8.80;3.40;;;;;;;-6.80;58.26;101371.27;117368;1185;21861;-51
2021/12/22 00:16:31;;;;;;;5.80;2.60;;;;;;;-6.77;58.19;101374.56;117302;1186;21865;-57
2021/12/22 00:19:00;;;;;;;7.90;3.50;;;;;;;-6.74;58.20;101372.42;117376;1182;21857;-51
2021/12/22 00:21:28;;;;;;;7.00;3.30;;;;;;;-6.70;58.37;101370.77;117378;1182;23445;-57
2021/12/22 00:23:56;;;;;;;7.90;3.50;;;;;;;-6.67;58.29;101367.96;117321;1182;21863;-57
2021/12/22 00:26:25;;;;;;;6.30;2.80;;;;;;;-6.64;58.40;101368.18;117324;1182;21864;-57
2021/12/22 00:28:53;;;;;;;8.10;3.60;;;;;;;-6.61;58.46;101366.97;117377;1185;23436;-57
2021/12/22 00:31:42;;;;;;;8.60;3.20;;;;;;;-6.60;58.33;101374.45;117243;1182;21945;-57
2021/12/22 00:34:17;;;;;;;7.70;3.70;;;;;;;-6.58;58.23;101372.17;117416;1186;24136;-57
2021/12/22 00:36:45;;;;;;;14.20;3.80;;;;;;;-6.57;58.34;101376.14;117373;1183;22629;-51
2021/12/22 00:39:13;;;;;;;8.10;3.00;;;;;;;-6.57;58.20;101374.31;117367;1183;21875;-51
2021/12/22 00:41:42;;;;;;;8.10;3.30;;;;;;;-6.56;58.43;101372.83;117299;1188;22327;-57
2021/12/22 00:44:12;;;;;;;7.80;3.80;;;;;;;-6.55;58.39;101371.52;117304;1182;23443;-56
2021/12/22 00:46:41;;;;;;;7.00;3.30;;;;;;;-6.52;58.46;101373.77;117124;1183;21861;-57
2021/12/22 00:49:10;;;;;;;6.60;2.50;;;;;;;-6.51;58.28;101371.27;117331;1186;22612;-51
2021/12/22 00:51:39;;;;;;;6.00;2.80;;;;;;;-6.52;58.22;101371.60;117162;1186;21891;-51
2021/12/22 00:54:07;;;;;;;7.40;3.20;;;;;;;-6.53;58.39;101372.56;117305;1186;21860;-55
2021/12/22 00:56:37;;;;;;;7.30;3.30;;;;;;;-6.55;58.31;101377.15;117355;1185;21864;-56
2021/12/22 00:59:06;;;;;;;;;;;;;;;-6.57;58.33;101377.05;117133;1186;21855;-58
2021/12/22 01:01:34;;;;;;;5.60;2.60;;;;;;;-6.57;58.33;101373.80;117347;1186;22827;-51
2021/12/22 01:04:04;;;;;;;6.10;3.10;;;;;;;-6.57;58.15;101379.58;117348;1188;23429;-57
2021/12/22 01:06:36;;;;;;;8.90;3.90;;;;;;;-6.59;58.26;101378.13;117375;1185;22629;-51
2021/12/22 01:09:05;;;;;;;7.80;3.30;;;;;;;-6.60;58.29;101374.64;117330;1185;21870;-51
2021/12/22 01:11:33;;;;;;;7.80;3.10;;;;;;;-6.59;58.36;101368.85;117418;1189;22722;-57
2021/12/22 01:14:03;;;;;;;5.40;2.90;;;;;;;-6.60;58.29;101370.48;117421;1185;23458;-57
2021/12/22 01:16:55;;;;;;;6.50;3.00;;;;;;;-6.63;58.37;101365.52;117350;1185;23018;-57
2021/12/22 01:19:31;;;;;;;7.20;3.20;;;;;;;-6.64;58.23;101366.27;117326;1186;21861;-51
2021/12/22 01:22:18;;;;;;;6.60;3.20;;;;;;;-6.65;58.33;101365.89;117373;1188;23622;-57
2021/12/22 01:24:59;;;;;;;6.60;2.80;;;;;;;-6.64;58.19;101365.73;117313;1183;21847;-50
2021/12/22 01:27:33;;;;;;;7.30;3.20;;;;;;;-6.64;58.30;101358.10;117355;1185;22019;-50
2021/12/22 01:30:11;;;;;;;6.90;3.30;;;;;;;-6.64;58.29;101352.64;117320;1185;21872;-50
2021/12/22 01:32:40;;;;;;;5.60;2.90;;;;;;;-6.63;58.21;101349.47;117339;1185;23523;-50
2021/12/22 01:35:10;;;;;;;5.90;2.90;;;;;;;-6.61;58.21;101351.64;117292;1185;23366;-56
2021/12/22 01:37:39;;;;;;;7.30;3.30;;;;;;;-6.58;58.38;101353.77;117409;1185;21860;-56
2021/12/22 01:40:08;;;;;;;6.50;2.80;;;;;;;-6.56;58.16;101354.73;117296;1183;22330;-57
2021/12/22 01:42:38;;;;;;;8.40;3.00;;;;;;;-6.58;58.32;101347.59;117354;1186;21898;-50
2021/12/22 01:51:54;;;;;;;6.90;2.90;;;;;;;-6.59;58.40;101354.19;117357;1185;22903;-56
2021/12/22 01:54:27;;;;;;;7.70;3.30;;;;;;;-6.59;58.19;101354.21;117354;1186;23486;-57
2021/12/22 01:57:00;;;;;;;8.60;3.00;;;;;;;-6.57;58.38;101357.55;117236;1184;21908;-57
2021/12/22 01:59:29;;;;;;;6.20;3.10;;;;;;;-6.54;58.36;101353.31;117346;1182;21871;-52
2021/12/22 02:01:57;;;;;;;6.60;3.10;;;;;;;-6.52;58.22;101358.39;117316;1185;21845;-57
2021/12/22 02:04:25;;;;;;;9.20;2.90;;;;;;;-6.50;58.43;101357.52;117174;1186;24143;-51
2021/12/22 02:06:54;;;;;;;6.70;2.60;;;;;;;-6.50;58.31;101353.45;117349;1185;23789;-51
2021/12/22 02:10:02;;;;;;;4.30;2.10;;;;;;;-6.50;58.26;101357.54;117373;1182;21860;-57
2021/12/22 02:12:13;;;;;;;6.20;2.80;;;;;;;-6.51;58.32;101353.86;117373;1183;21853;-51
2021/12/22 02:14:42;;;;;;;7.20;2.70;;;;;;;-6.51;58.34;101351.98;117367;1185;21863;-51
2021/12/22 02:17:12;;;;;;;5.10;2.60;;;;;;;-6.50;58.25;101347.46;117278;1186;22985;-57
2021/12/22 02:19:42;;;;;;;4.80;2.20;;;;;;;-6.48;58.50;101345.09;117321;1185;21879;-57
2021/12/22 02:22:13;;;;;;;5.30;2.30;;;;;;;-6.46;58.43;101339.89;117315;1185;21853;-52
2021/12/22 02:24:58;;;;;;;5.90;2.10;;;;;;;-6.43;58.50;101341.98;117395;1186;22929;-57
2021/12/22 02:27:48;;;;;;;7.80;2.70;;;;;;;-6.37;58.38;101342.95;117391;1185;21862;-51
2021/12/22 02:30:23;;;;;;;5.20;2.40;;;;;;;-6.33;58.58;101348.19;117386;1185;21861;-57
2021/12/22 02:35:53;;;;;;;4.20;2.30;;;;;;;-6.22;58.68;101337.79;117384;1185;23626;-57
2021/12/22 02:38:18;;;;;;;5.70;2.20;;;;;;;-6.20;58.26;101330.11;117369;1184;21848;-57
2021/12/22 02:40:50;;;;;;;9.80;4.60;;;;;;;-6.23;58.36;101329.06;117338;1183;22662;-56
2021/12/22 02:43:23;;;;;;;4.80;2.10;;;;;;;-6.27;58.37;101330.52;117373;1185;23620;-57
2021/12/22 02:45:52;;;;;;;7.90;2.60;;;;;;;-6.26;58.53;101326.97;117374;1185;23449;-57
2021/12/22 02:48:20;;;;;;;4.60;2.30;;;;;;;-6.27;58.40;101325.02;117390;1185;23564;-51
2021/12/22 02:50:49;;;;;;;5.40;2.60;;;;;;;-6.28;58.43;101328.02;117359;1183;21940;-58
2021/12/22 02:53:18;;;;;;;6.60;3.10;;;;;;;-6.27;58.49;101329.80;117397;1188;21859;-57
2021/12/22 02:55:50;;;;;;;5.10;2.70;;;;;;;-6.26;58.49;101330.70;117344;1185;21865;-56
2021/12/22 03:06:13;;;;;;;5.60;2.20;;;;;;;-6.12;58.51;101343.83;117352;1183;21869;-56
2021/12/22 03:08:41;;;;;;;4.60;2.10;;;;;;;-6.08;58.62;101346.65;117397;1183;23585;-56
2021/12/22 03:11:09;;;;;;;6.00;2.40;;;;;;;-6.06;58.63;101354.47;117346;1186;21855;-56
2021/12/22 03:13:38;;;;;;;5.30;2.60;;;;;;;-6.03;58.63;101347.54;117317;1185;22323;-51
2021/12/22 03:16:06;;;;;;;8.80;3.30;;;;;;;-6.02;58.61;101347.09;117177;1186;21979;-51
2021/12/22 03:18:35;;;;;;;4.90;2.50;;;;;;;-6.01;58.66;101358.27;117335;1185;21847;-57
2021/12/22 03:21:18;;;;;;;7.90;3.10;;;;;;;-5.98;58.57;101364.92;117219;1185;23537;-57
2021/12/22 03:23:51;;;;;;;6.70;2.60;;;;;;;-5.96;58.71;101365.42;117365;1183;21856;-57
2021/12/22 03:26:22;;;;;;;6.40;2.30;;;;;;;-5.94;58.57;101362.80;117373;1185;22912;-57
2021/12/22 03:28:51;;;;;;;6.50;3.10;;;;;;;-5.94;58.68;101361.32;117282;1182;21848;-56
2021/12/22 03:31:21;;;;;;;5.80;2.60;;;;;;;-5.92;58.73;101357.83;117359;1185;22391;-57
2021/12/22 03:33:49;;;;;;;8.00;2.90;;;;;;;-5.91;58.68;101355.00;117384;1185;22954;-57
2021/12/22 03:36:18;;;;;;;6.20;3.00;;;;;;;-5.89;58.66;101355.81;117445;1182;21905;-57
2021/12/22 03:38:48;;;;;;;6.60;2.70;;;;;;;-5.86;58.65;101350.58;117334;1183;23448;-57
2021/12/22 03:41:16;;;;;;;7.40;3.90;;;;;;;-5.87;58.60;101341.61;117375;1188;22911;-56
2021/12/22 03:43:45;;;;;;;7.50;3.50;;;;;;;-5.92;58.35;101335.23;117366;1185;21866;-51
2021/12/22 03:46:13;;;;;;;5.60;2.90;;;;;;;-6.00;58.50;101333.92;117432;1185;23436;-52
2021/12/22 03:48:42;;;;;;;9.90;2.80;;;;;;;-6.03;58.49;101342.92;117363;1185;21881;-52
2021/12/22 03:51:10;;;;;;;5.40;2.60;;;;;;;-6.05;58.48;101354.23;117358;1183;23458;-51
2021/12/22 03:53:39;;;;;;;6.30;3.20;;;;;;;-6.07;58.56;101355.65;117384;1185;21857;-51
2021/12/22 03:56:07;;;;;;;7.00;3.30;;;;;;;-6.09;58.46;101357.02;117334;1184;22050;-55
2021/12/22 03:58:36;;;;;;;8.00;3.10;;;;;;;-6.10;58.51;101360.69;117364;1185;21864;-51
2021/12/22 04:01:04;;;;;;;5.30;2.70;;;;;;;-6.09;58.60;101361.98;117296;1184;24143;-51
2021/12/22 04:03:35;;;;;;;9.30;3.60;;;;;;;-6.08;58.46;101366.50;117353;1185;23459;-51
2021/12/22 04:06:04;;;;;;;6.30;2.60;;;;;;;-6.06;58.68;101367.82;117282;1186;22921;-55
2021/12/22 04:08:32;;;;;;;6.50;3.20;;;;;;;-6.03;58.55;101368.86;117343;1185;21866;-57
2021/12/22 04:11:01;;;;;;;6.50;2.60;;;;;;;-6.01;58.55;101369.91;117285;1185;21857;-58
2021/12/22 04:13:30;;;;;;;6.50;3.00;;;;;;;-5.98;58.54;101369.76;117453;1189;21864;-57
2021/12/22 04:16:01;;;;;;;7.10;3.00;;;;;;;-5.91;58.57;101367.51;117310;1182;21863;-52
2021/12/22 04:18:30;;;;;;;6.10;3.40;;;;;;;-5.84;58.81;101372.42;117298;1186;21865;-56
2021/12/22 04:20:58;;;;;;;12.00;5.20;;;;;;;-5.78;58.78;101370.10;117355;1185;21845;-52
2021/12/22 04:23:47;;;;;;;5.70;3.00;;;;;;;-5.73;58.57;101369.92;117361;1185;22905;-51
2021/12/22 04:26:15;;;;;;;8.30;3.40;;;;;;;-5.69;58.53;101371.05;117394;1185;21857;-51
2021/12/22 04:29:01;;;;;;;6.90;3.40;;;;;;;-5.66;58.68;101371.10;117333;1176;22915;-53
2021/12/22 04:31:46;;;;;;;6.70;3.50;;;;;;;-5.62;58.76;101368.09;117310;1176;24133;-57
2021/12/22 04:34:32;;;;;;;8.20;3.70;;;;;;;-5.56;58.90;101371.23;117355;1176;21877;-56
2021/12/22 04:37:17;;;;;;;7.10;3.40;;;;;;;-5.50;58.61;101376.44;117337;1176;23681;-56
2021/12/22 04:39:55;;;;;;;7.90;3.70;;;;;;;-5.44;58.64;101380.75;117393;1185;23478;-56
2021/12/22 04:42:23;;;;;;;7.10;3.20;;;;;;;-5.38;59.02;101384.77;117360;1185;21848;-51
2021/12/22 04:44:54;;;;;;;12.60;3.60;;;;;;;-5.33;58.87;101392.34;117329;1186;22947;-56
2021/12/22 04:47:23;;;;;;;7.70;3.80;;;;;;;-5.27;58.69;101397.48;117332;1184;21860;-55
2021/12/22 04:49:51;;;;;;;6.50;3.40;;;;;;;-5.22;58.89;101399.92;117342;1182;23111;-56
2021/12/22 04:52:22;;;;;;;10.10;4.30;;;;;;;-5.15;58.73;101400.21;117452;1185;21851;-55
2021/12/22 04:55:03;;;;;;;9.80;3.70;;;;;;;-5.10;58.94;101403.84;117245;1186;21972;-57
2021/12/22 04:57:32;;;;;;;9.90;4.20;;;;;;;-5.03;58.98;101403.03;117159;1185;21872;-57
2021/12/22 05:00:01;;;;;;;11.90;4.30;;;;;;;-4.97;59.07;101400.02;117354;1182;21857;-57
2021/12/22 05:02:30;;;;;;;7.10;3.60;;;;;;;-4.96;58.90;101402.67;117418;1185;21864;-56
2021/12/22 05:04:59;;;;;;;8.00;3.80;;;;;;;-4.97;58.94;101404.11;117254;1186;21898;-57
2021/12/22 05:07:32;;;;;;;9.30;4.70;;;;;;;-4.98;58.85;101397.55;117309;1181;23114;-56
2021/12/22 05:10:18;;;;;;;9.90;3.80;;;;;;;-4.98;58.76;101400.49;117312;1176;21885;-56
2021/12/22 05:13:03;;;;;;;8.70;4.30;;;;;;;-4.98;58.67;101403.05;117430;1185;22902;-52
2021/12/22 05:15:39;;;;;;;8.40;4.00;;;;;;;-4.99;58.57;101407.95;117257;1186;21863;-56
2021/12/22 05:18:22;;;;;;;9.10;4.10;;;;;;;-4.97;58.49;101410.98;117330;1186;21904;-51
2021/12/22 05:20:51;;;;;;;9.20;4.50;;;;;;;-4.99;58.56;101417.52;117334;1183;21870;-56
2021/12/22 05:23:39;;;;;;;8.30;4.30;;;;;;;-5.01;58.57;101431.40;117350;1184;21845;-56
2021/12/22 05:26:07;;;;;;;9.20;4.30;;;;;;;-5.03;58.39;101433.31;117379;1184;21845;-56
2021/12/22 05:28:36;;;;;;;10.40;4.90;;;;;;;-5.05;58.44;101434.60;117410;1186;21869;-56
2021/12/22 05:31:12;;;;;;;8.00;3.80;;;;;;;-5.04;58.64;101435.17;117440;1185;21865;-56
2021/12/22 05:33:41;;;;;;;10.70;4.40;;;;;;;-5.05;58.62;101439.58;117342;1186;23507;-57
2021/12/22 05:36:09;;;;;;;8.30;3.80;;;;;;;-5.07;58.37;101440.13;117355;1183;23458;-51
2021/12/22 05:38:39;;;;;;;8.00;3.20;;;;;;;-5.08;58.48;101449.98;117316;1185;21860;-57
2021/12/22 05:41:07;;;;;;;12.40;5.20;;;;;;;-5.07;58.49;101454.14;117340;1182;21886;-57
2021/12/22 05:43:35;;;;;;;40.50;16.80;;;;;;;-5.05;58.53;101452.04;117360;1185;23079;-52
2021/12/22 05:46:04;;;;;;;14.20;6.80;;;;;;;-5.04;58.49;101454.71;117348;1185;21864;-57
2021/12/22 05:48:32;;;;;;;12.70;5.00;;;;;;;-5.02;58.47;101456.70;117331;1185;23542;-56
2021/12/22 05:51:02;;;;;;;12.60;6.40;;;;;;;-4.99;58.44;101458.60;117368;1183;21848;-56
2021/12/22 05:53:30;;;;;;;18.80;8.70;;;;;;;-4.98;58.42;101455.45;118403;1186;23003;-56
2021/12/22 05:55:59;;;;;;;16.30;9.30;;;;;;;-4.98;58.52;101452.83;117390;1185;23541;-52
2021/12/22 05:58:27;;;;;;;15.60;9.80;;;;;;;-4.98;58.55;101454.58;117362;1185;21957;-56
2021/12/22 06:00:56;;;;;;;14.90;8.30;;;;;;;-4.95;58.55;101462.48;117296;1186;21868;-52
2021/12/22 06:03:25;;;;;;;16.20;7.80;;;;;;;-4.92;58.59;101465.09;117359;1185;21855;-51
2021/12/22 06:05:53;;;;;;;22.90;8.10;;;;;;;-4.91;58.71;101465.80;117345;1186;21857;-56
2021/12/22 06:08:21;;;;;;;15.20;7.00;;;;;;;-4.94;58.58;101464.47;117370;1186;23528;-52
2021/12/22 06:10:50;;;;;;;12.80;5.50;;;;;;;-4.96;58.66;101464.27;117365;1182;23438;-56
2021/12/22 06:13:19;;;;;;;11.90;6.40;;;;;;;-4.97;58.56;101470.38;117270;1185;22910;-57
2021/12/22 06:15:48;;;;;;;15.80;7.30;;;;;;;-4.96;58.65;101470.16;117360;1186;22975;-55
2021/12/22 06:18:16;;;;;;;12.40;6.60;;;;;;;-4.93;58.64;101474.40;117331;1184;23526;-51
2021/12/22 06:20:44;;;;;;;16.20;9.10;;;;;;;-4.89;58.79;101479.83;117307;1185;21859;-52
2021/12/22 06:23:13;;;;;;;16.10;8.50;;;;;;;-4.86;58.69;101478.17;117347;1185;23457;-57
2021/12/22 06:25:41;;;;;;;12.90;7.70;;;;;;;-4.86;58.66;101480.04;117399;1186;24151;-57
2021/12/22 06:28:10;;;;;;;15.80;8.80;;;;;;;-4.90;58.93;101480.98;117273;1184;23453;-57
2021/12/22 06:30:38;;;;;;;9.90;5.70;;;;;;;-4.86;59.15;101481.24;117233;1183;21863;-51
2021/12/22 06:33:06;;;;;;;11.00;5.40;;;;;;;-4.79;59.03;101486.65;117306;1183;22651;-57
2021/12/22 06:35:35;;;;;;;12.50;5.70;;;;;;;-4.72;59.17;101485.96;117300;1186;21857;-58
2021/12/22 06:38:03;;;;;;;10.50;5.50;;;;;;;-4.67;59.10;101482.03;118038;1185;23476;-57
2021/12/22 06:40:32;;;;;;;11.50;5.50;;;;;;;-4.61;58.99;101483.59;117326;1186;21857;-57
2021/12/22 06:43:00;;;;;;;12.60;6.50;;;;;;;-4.53;59.13;101483.61;117351;1186;21859;-57
2021/12/22 06:45:29;;;;;;;13.70;5.80;;;;;;;-4.46;59.14;101480.83;117398;1184;22800;-57
2021/12/22 06:47:58;;;;;;;11.40;5.00;;;;;;;-4.39;59.08;101485.19;117357;1185;23471;-58
2021/12/22 06:50:26;;;;;;;14.00;4.90;;;;;;;-4.34;58.94;101488.46;117361;1185;21901;-58
2021/12/22 06:52:54;;;;;;;12.70;5.70;;;;;;;-4.27;59.09;101487.15;117334;1182;23437;-53
2021/12/22 06:55:22;;;;;;;11.00;5.30;;;;;;;-4.22;59.24;101490.96;117350;1183;23257;-51
2021/12/22 06:57:55;;;;;;;10.60;5.70;;;;;;;-4.15;59.30;101487.10;117288;1186;21947;-57
2021/12/22 07:00:23;;;;;;;11.70;5.40;;;;;;;-4.08;59.30;101489.30;117380;1176;22610;-57
2021/12/22 07:02:52;;;;;;;11.00;5.40;;;;;;;-4.01;59.38;101486.13;117343;1176;21856;-57
2021/12/22 07:05:21;;;;;;;11.70;5.20;;;;;;;-3.95;59.38;101485.09;117361;1182;21913;-54
2021/12/22 07:08:06;;;;;;;9.50;4.80;;;;;;;-3.90;59.20;101487.64;117305;1182;21907;-52
2021/12/22 07:10:52;;;;;;;11.10;4.40;;;;;;;-3.83;59.47;101489.13;117306;1185;24162;-58
2021/12/22 07:13:21;;;;;;;9.00;5.50;;;;;;;-3.77;59.39;101487.98;117468;1185;22915;-58
2021/12/22 07:15:49;;;;;;;7.70;4.70;;;;;;;-3.65;59.45;101486.36;117324;1185;23440;-55
2021/12/22 07:18:17;;;;;;;13.40;5.50;;;;;;;-3.54;59.38;101485.63;117311;1183;21869;-59
2021/12/22 07:20:47;;;;;;;11.40;5.70;;;;;;;-3.45;59.47;101486.36;117320;1182;21870;-58
2021/12/22 07:23:15;;;;;;;19.40;6.50;;;;;;;-3.36;59.47;101489.31;117292;1184;21857;-52
2021/12/22 07:25:43;;;;;;;12.80;5.60;;;;;;;-3.28;59.42;101486.38;117295;1183;21865;-57
2021/12/22 07:28:12;;;;;;;22.00;8.40;;;;;;;-3.23;59.37;101490.60;117290;1185;21857;-56
2021/12/22 07:30:41;;;;;;;11.90;5.20;;;;;;;-3.21;59.38;101496.42;117351;1182;21941;-59
2021/12/22 07:33:09;;;;;;;10.20;5.20;;;;;;;-3.18;59.46;101493.15;117302;1185;21864;-57
2021/12/22 07:35:58;;;;;;;9.40;5.10;;;;;;;-3.14;59.45;101495.45;117335;1183;21868;-52
2021/12/22 07:39:01;;;;;;;9.60;4.90;;;;;;;-3.09;59.37;101493.55;117430;1185;21870;-54
2021/12/22 07:41:30;;;;;;;13.10;5.10;;;;;;;-3.03;59.38;101496.64;117183;1187;21904;-59
2021/12/22 07:43:59;;;;;;;10.00;5.10;;;;;;;-2.99;59.40;101497.77;117328;1184;21860;-52
2021/12/22 07:46:27;;;;;;;10.50;4.70;;;;;;;-2.95;59.25;101491.96;117273;1184;23152;-58
2021/12/22 07:48:55;;;;;;;8.40;4.80;;;;;;;-2.90;59.40;101490.90;118713;1186;21861;-52
2021/12/22 07:51:24;;;;;;;10.70;4.90;;;;;;;-2.85;59.37;101488.15;117430;1184;21861;-57
2021/12/22 07:53:52;;;;;;;10.40;4.70;;;;;;;-2.79;59.34;101490.55;117405;1185;21870;-57
2021/12/22 07:56:20;;;;;;;10.50;5.30;;;;;;;-2.75;59.38;101491.98;117431;1182;21891;-52
2021/12/22 07:58:48;;;;;;;11.00;5.10;;;;;;;-2.69;59.45;101495.08;117415;1182;21848;-56
2021/12/22 08:01:17;;;;;;;8.00;4.30;;;;;;;-2.61;59.53;101496.71;117392;1185;21854;-52
2021/12/22 08:03:46;;;;;;;8.40;5.00;;;;;;;-2.54;59.58;101498.18;117429;1185;21859;-56
2021/12/22 08:06:32;;;;;;;10.30;5.10;;;;;;;-2.45;59.53;101496.62;117296;1185;21901;-56
2021/12/22 08:09:25;;;;;;;9.70;5.70;;;;;;;-2.40;59.47;101494.72;117337;1184;23475;-52
2021/12/22 08:11:55;;;;;;;12.90;5.40;;;;;;;-2.38;59.46;101497.89;117360;1185;21860;-54
2021/12/22 08:14:24;;;;;;;9.20;5.00;;;;;;;-2.32;59.46;101498.25;117380;1182;21868;-52
2021/12/22 08:16:53;;;;;;;12.20;5.70;;;;;;;-2.28;59.44;101502.79;117416;1184;21861;-52
2021/12/22 08:19:21;;;;;;;10.30;5.00;;;;;;;-2.26;59.35;101498.11;117317;1184;21901;-52
2021/12/22 08:21:49;;;;;;;10.20;4.90;;;;;;;-2.22;59.32;101503.27;117340;1184;21941;-53
2021/12/22 08:24:18;;;;;;;8.40;5.00;;;;;;;-2.21;59.09;101499.36;117378;1182;21867;-56
2021/12/22 08:27:04;;;;;;;11.90;4.40;;;;;;;-2.21;59.17;101497.66;117379;1176;21856;-53
2021/12/22 08:29:33;;;;;;;10.70;5.30;;;;;;;-2.22;59.28;101494.89;117343;1185;21867;-58
2021/12/22 08:32:03;;;;;;;11.10;5.20;;;;;;;-2.20;59.37;101500.81;117307;1181;21861;-57
2021/12/22 08:34:36;;;;;;;;;;;;;;;-2.15;59.51;101499.91;117383;1185;22956;-57
2021/12/22 08:39:52;;;;;;;21.80;8.10;;;;;;;-2.05;59.59;101505.98;117382;1185;21848;-52
2021/12/22 08:42:21;;;;;;;21.70;7.70;;;;;;;-1.98;59.55;101507.05;117327;1186;23458;-58
2021/12/22 08:44:50;;;;;;;21.70;9.00;;;;;;;-1.98;59.43;101511.20;117370;1182;23158;-57
2021/12/22 08:47:18;;;;;;;17.70;8.90;;;;;;;-1.96;59.56;101510.27;117507;1184;21864;-57
2021/12/22 08:49:46;;;;;;;18.30;8.00;;;;;;;-1.92;59.54;101506.02;117335;1185;21862;-54
2021/12/22 08:52:15;;;;;;;12.00;6.10;;;;;;;-1.88;59.61;101501.96;117343;1186;21864;-54
2021/12/22 08:54:44;;;;;;;11.20;6.00;;;;;;;-1.82;59.50;101500.90;117375;1183;21867;-57
2021/12/22 08:57:16;;;;;;;9.90;6.00;;;;;;;-1.75;59.62;101504.05;117304;1189;21857;-52
2021/12/22 08:59:44;;;;;;;12.30;5.90;;;;;;;-1.70;59.62;101499.67;117369;1181;22929;-57
2021/12/22 09:02:12;;;;;;;14.60;5.80;;;;;;;-1.68;59.36;101497.55;117373;1181;21856;-53
2021/12/22 09:04:41;;;;;;;11.00;5.90;;;;;;;-1.68;59.32;101499.61;117344;1186;21855;-56
2021/12/22 09:07:09;;;;;;;10.60;5.80;;;;;;;-1.67;59.36;101497.80;117364;1183;21854;-56
2021/12/22 09:09:39;;;;;;;10.30;5.10;;;;;;;-1.66;59.20;101497.66;117363;1185;21895;-53
2021/12/22 09:12:08;;;;;;;9.60;5.20;;;;;;;-1.66;59.42;101493.51;117362;1185;21866;-52
2021/12/22 09:14:36;;;;;;;10.70;4.80;;;;;;;-1.67;59.25;101494.34;117354;1184;22956;-52
2021/12/22 09:17:04;;;;;;;10.60;5.50;;;;;;;-1.60;59.37;101494.36;117349;1183;23437;-54
2021/12/22 09:19:33;;;;;;;8.80;5.00;;;;;;;-1.48;59.64;101491.39;117341;1184;23462;-58
2021/12/22 09:22:01;;;;;;;11.30;5.60;;;;;;;-1.30;59.78;101488.74;117311;1182;22652;-54
2021/12/22 09:24:32;;;;;;;10.60;5.70;;;;;;;-1.08;59.73;101490.41;117334;1182;21860;-58
2021/12/22 09:27:00;;;;;;;10.70;5.10;;;;;;;-0.92;60.12;101486.43;117303;1182;22794;-54
2021/12/22 09:29:29;;;;;;;8.30;4.80;;;;;;;-0.79;59.92;101483.48;117332;1182;22929;-54
2021/12/22 09:31:57;;;;;;;12.40;6.60;;;;;;;-0.65;60.07;101477.48;117330;1184;24745;-57
2021/12/22 09:34:25;;;;;;;10.10;5.90;;;;;;;-0.45;60.34;101473.50;117329;1185;21868;-55
2021/12/22 09:36:54;;;;;;;10.10;5.90;;;;;;;-0.25;60.14;101471.38;117322;1184;21864;-54
2021/12/22 09:39:22;;;;;;;13.90;6.60;;;;;;;-0.05;59.89;101471.81;117466;1185;23477;-55
2021/12/22 09:41:51;;;;;;;10.80;5.60;;;;;;;0.08;59.78;101471.38;117359;1185;21867;-57
2021/12/22 09:44:20;;;;;;;11.00;5.80;;;;;;;0.20;59.93;101469.92;117292;1184;22912;-58
2021/12/22 09:46:52;;;;;;;11.40;5.70;;;;;;;0.30;60.12;101467.79;117319;1182;21860;-55
2021/12/22 09:52:21;;;;;;;9.30;4.90;;;;;;;0.20;59.33;101463.85;117362;1185;21859;-56
2021/12/22 09:54:56;;;;;;;14.20;5.70;;;;;;;0.13;59.10;101460.07;117325;1185;21848;-58
2021/12/22 09:57:25;;;;;;;9.70;5.20;;;;;;;0.12;59.48;101461.05;117381;1183;22000;-55
2021/12/22 09:59:54;;;;;;;11.80;5.90;;;;;;;0.16;59.43;101459.15;117388;1184;24610;-57
2021/12/22 10:02:25;;;;;;;12.60;6.20;;;;;;;0.19;59.72;101448.23;117373;1185;21871;-57
2021/12/22 10:04:58;;;;;;;12.90;4.90;;;;;;;0.23;59.56;101443.45;117294;1186;24126;-57
2021/12/22 10:07:30;;;;;;;14.40;6.70;;;;;;;0.27;59.49;101439.47;117397;1185;24268;-54
2021/12/22 10:10:16;;;;;;;14.20;7.80;;;;;;;0.34;59.50;101430.69;117214;1176;22656;-56
2021/12/22 10:13:11;;;;;;;11.60;6.10;;;;;;;0.47;59.75;101426.06;117252;1185;22042;-58
2021/12/22 10:15:58;;;;;;;11.20;5.90;;;;;;;0.61;59.87;101425.30;117332;1176;22653;-58
2021/12/22 10:18:44;;;;;;;11.00;6.30;;;;;;;0.64;59.53;101421.50;117299;1179;22913;-55
2021/12/22 10:21:29;;;;;;;10.30;5.50;;;;;;;0.75;59.67;101420.92;117250;1186;21855;-58
2021/12/22 10:23:57;;;;;;;14.40;6.30;;;;;;;0.91;59.80;101425.24;117314;1185;21865;-58
2021/12/22 10:26:26;;;;;;;11.10;5.90;;;;;;;0.99;59.90;101428.05;117019;1188;23506;-54
2021/12/22 10:28:56;;;;;;;11.90;5.90;;;;;;;0.94;59.44;101431.25;117330;1181;23533;-58
2021/12/22 10:31:39;;;;;;;11.40;5.00;;;;;;;0.84;59.24;101432.58;117487;1180;21959;-58
2021/12/22 10:34:12;;;;;;;18.50;8.60;;;;;;;0.66;59.12;101428.84;117320;1185;21857;-55
2021/12/22 10:36:51;;;;;;;14.30;7.00;;;;;;;0.53;59.24;101428.40;117303;1176;23439;-55
2021/12/22 10:39:27;;;;;;;18.00;7.60;;;;;;;0.37;59.22;101428.42;117324;1186;22651;-55
2021/12/22 10:42:07;;;;;;;29.90;10.90;;;;;;;0.28;59.28;101431.95;117368;1188;22038;-55
2021/12/22 10:44:40;;;;;;;30.70;12.20;;;;;;;0.13;58.87;101428.31;117357;1184;23009;-54
2021/12/22 10:49:14;;;;;;;21.90;10.80;;;;;;;0.00;58.66;101423.91;117290;1184;21862;-54
2021/12/22 10:50:23;;;;;;;18.70;9.10;;;;;;;-0.02;59.50;101424.88;117358;1182;23456;-58
2021/12/22 10:52:52;;;;;;;23.50;10.60;;;;;;;-0.04;59.04;101430.29;117207;1184;21914;-55
2021/12/22 10:55:20;;;;;;;15.40;8.20;;;;;;;-0.10;58.85;101431.69;118051;1182;21960;-59
2021/12/22 10:57:48;;;;;;;16.70;8.60;;;;;;;-0.10;59.01;101428.60;117352;1184;23216;-55
2021/12/22 11:00:22;;;;;;;14.60;7.50;;;;;;;-0.10;58.89;101426.73;117362;1184;24153;-58
2021/12/22 11:03:05;;;;;;;15.10;6.90;;;;;;;-0.14;58.98;101422.91;117324;1184;21854;-54
2021/12/22 11:05:43;;;;;;;14.90;8.30;;;;;;;-0.24;59.05;101420.70;117347;1182;21914;-54
2021/12/22 11:08:38;;;;;;;12.40;7.40;;;;;;;-0.24;58.92;101418.63;117353;1184;21858;-54
2021/12/22 11:11:15;;;;;;;14.40;7.10;;;;;;;-0.26;59.20;101411.13;117296;1186;22165;-58
2021/12/22 11:13:43;;;;;;;15.60;8.80;;;;;;;-0.28;59.54;101411.86;117294;1189;23442;-57
2021/12/22 11:16:13;;;;;;;12.80;7.10;;;;;;;-0.31;59.15;101411.92;117292;1184;21871;-54
2021/12/22 11:18:41;;;;;;;18.30;8.80;;;;;;;-0.31;59.47;101419.30;117306;1182;22912;-58
2021/12/22 11:21:16;;;;;;;18.40;10.00;;;;;;;-0.27;59.34;101420.71;117358;1182;23460;-56
2021/12/22 11:23:45;;;;;;;16.60;8.60;;;;;;;-0.22;59.41;101421.83;117407;1183;24170;-54
2021/12/22 11:26:13;;;;;;;13.20;7.00;;;;;;;-0.16;59.39;101422.98;117282;1181;22920;-58
2021/12/22 11:28:42;;;;;;;15.60;7.60;;;;;;;-0.11;59.34;101421.48;117317;1183;24696;-55
2021/12/22 11:31:11;;;;;;;12.30;6.60;;;;;;;-0.09;59.54;101417.78;117252;1185;21944;-58
2021/12/22 11:33:45;;;;;;;15.00;7.50;;;;;;;-0.06;59.36;101422.92;118893;1184;21881;-56
2021/12/22 11:36:14;;;;;;;14.10;7.90;;;;;;;-0.04;59.47;101421.50;117263;1186;23544;-56
2021/12/22 11:38:42;;;;;;;14.80;6.90;;;;;;;0.01;59.53;101416.68;117367;1185;22896;-56
2021/12/22 11:41:15;;;;;;;19.10;10.70;;;;;;;0.05;59.85;101417.41;117362;1184;22813;-59
2021/12/22 11:43:44;;;;;;;37.20;18.40;;;;;;;0.10;59.57;101417.64;117346;1182;21933;-58
2021/12/22 11:46:12;;;;;;;39.10;17.60;;;;;;;0.13;59.51;101415.54;117375;1184;22916;-58
2021/12/22 11:48:41;;;;;;;24.10;12.80;;;;;;;0.18;59.47;101419.59;117353;1184;21867;-58
2021/12/22 11:51:29;;;;;;;22.40;11.70;;;;;;;0.21;59.49;101413.67;117352;1182;21890;-55
2021/12/22 11:53:59;;;;;;;17.20;9.30;;;;;;;0.31;60.04;101415.83;117329;1185;21861;-57
2021/12/22 11:56:44;;;;;;;20.20;10.00;;;;;;;0.41;59.77;101415.98;117054;1184;21864;-55
2021/12/22 11:59:28;;;;;;;19.20;9.70;;;;;;;0.52;59.83;101417.50;117425;1184;21923;-58